General Mitchell International Airport Milwaukee US
ICAO: KMKE
IATA: MKE
Category: Large
Scheduled Services: Yes

Elevation: 723 ft
TransAlt. 18000 ft.

Airport Communications:
MILWAUKEE APP:118
ATIS:126.4
AWOS:148.35
MILWAUKEE CLNC DEL:120.8
MILWAUKEE DEP:119.65
MILWAUKEE GND:121.8
128ARW ANG COMD POST:32.1
440 BASE OPS:31.42
440 AW COMD POST:37.61
PTD:37.61
GREEN BAY RDO:122.4
MILWAUKEE TWR:119.1
UNICOM:122.95

KMKE Zoom In..

Runways:

(A) RW 01L length 9990 ft width 200 ft
ILS 110.30 / hdg 9

(B) RW 01R length 4183 ft width 150 ft
LOC 111.50 / hdg 9

(C) RW 07L length 4800 ft width 100 ft
LOC 111.50 / hdg 74

(D) RW 07R length 8300 ft width 150 ft
ILS 111.50 / hdg 74

(E) RW 13 length 5538 ft width 150 ft
LOC 111.50 / hdg 134

(F) RW 19L length 4183 ft width 150 ft
LOC 111.50 / hdg 189

(G) RW 19R length 9990 ft width 200 ft
ILS 110.30 / hdg 189

(H) RW 25L length 8300 ft width 150 ft
LOC 111.50 / hdg 254

(I) RW 25R length 4800 ft width 100 ft
LOC 111.50 / hdg 254

(J) RW 31 length 5538 ft width 150 ft
LOC 111.50 / hdg 314

Location; KMKE
Day. 23 / Time. 15.11 Zulu
* Altimeter: 29.73
* Temperature: -01° c. -30.2°f.
* Wind from: 330° Speed 11 kn with Gusts up to 20 kn.
Dewpoint: -05° c.
Visibility: 10 Statute Miles.
Clouds: Scattered 2000 ft.
Clouds: Overcast 3700 ft.

KMKE 231511Z 33011G20KT 10SM SCT020 OVC037 M01/M05 A2973 RMK AO2 T10111050


Wind From 330°
Speed 11 kn.

YouTube Music Video
 
jpsmedia.com for Web Design  worldairports.se 2018   terms of use